sensor_id;sensor_type;location;lat;lon;timestamp;P1;durP1;ratioP1;P2;durP2;ratioP2
18142;SDS011;9197;50.930;3.140;2022-12-07T00:00:22;9.77;;;5.60;;
18142;SDS011;9197;50.930;3.140;2022-12-07T00:02:49;10.40;;;6.83;;
18142;SDS011;9197;50.930;3.140;2022-12-07T00:05:16;9.20;;;6.37;;
18142;SDS011;9197;50.930;3.140;2022-12-07T00:07:43;10.93;;;6.37;;
18142;SDS011;9197;50.930;3.140;2022-12-07T00:10:10;7.07;;;5.33;;
18142;SDS011;9197;50.930;3.140;2022-12-07T00:12:39;8.53;;;5.63;;
18142;SDS011;9197;50.930;3.140;2022-12-07T00:15:06;5.47;;;4.90;;
18142;SDS011;9197;50.930;3.140;2022-12-07T00:17:34;5.90;;;5.00;;
18142;SDS011;9197;50.930;3.140;2022-12-07T00:20:01;7.57;;;4.93;;
18142;SDS011;9197;50.930;3.140;2022-12-07T00:22:28;6.00;;;5.17;;
18142;SDS011;9197;50.930;3.140;2022-12-07T00:24:55;8.03;;;5.47;;
18142;SDS011;9197;50.930;3.140;2022-12-07T00:27:22;8.60;;;5.03;;
18142;SDS011;9197;50.930;3.140;2022-12-07T00:29:51;13.43;;;5.10;;
18142;SDS011;9197;50.930;3.140;2022-12-07T00:32:18;7.97;;;4.63;;
18142;SDS011;9197;50.930;3.140;2022-12-07T00:34:45;10.63;;;5.20;;
18142;SDS011;9197;50.930;3.140;2022-12-07T00:37:12;7.50;;;4.87;;
18142;SDS011;9197;50.930;3.140;2022-12-07T00:39:39;7.80;;;5.23;;
18142;SDS011;9197;50.930;3.140;2022-12-07T00:42:06;5.43;;;4.93;;
18142;SDS011;9197;50.930;3.140;2022-12-07T00:44:34;6.37;;;5.00;;
18142;SDS011;9197;50.930;3.140;2022-12-07T00:47:02;5.87;;;4.90;;
18142;SDS011;9197;50.930;3.140;2022-12-07T00:49:29;4.83;;;4.33;;
18142;SDS011;9197;50.930;3.140;2022-12-07T00:51:57;7.37;;;6.00;;
18142;SDS011;9197;50.930;3.140;2022-12-07T00:54:24;7.57;;;5.03;;
18142;SDS011;9197;50.930;3.140;2022-12-07T00:56:51;7.13;;;5.00;;
18142;SDS011;9197;50.930;3.140;2022-12-07T00:59:18;7.17;;;5.40;;
18142;SDS011;9197;50.930;3.140;2022-12-07T01:01:45;8.57;;;4.80;;
18142;SDS011;9197;50.930;3.140;2022-12-07T01:04:14;9.87;;;5.13;;
18142;SDS011;9197;50.930;3.140;2022-12-07T01:06:41;11.27;;;5.53;;
18142;SDS011;9197;50.930;3.140;2022-12-07T01:09:08;7.90;;;4.60;;
18142;SDS011;9197;50.930;3.140;2022-12-07T01:11:35;8.77;;;5.33;;
18142;SDS011;9197;50.930;3.140;2022-12-07T01:14:02;11.57;;;6.00;;
18142;SDS011;9197;50.930;3.140;2022-12-07T01:16:30;8.27;;;6.03;;
18142;SDS011;9197;50.930;3.140;2022-12-07T01:18:58;8.17;;;5.27;;
18142;SDS011;9197;50.930;3.140;2022-12-07T01:21:27;15.20;;;6.63;;
18142;SDS011;9197;50.930;3.140;2022-12-07T01:23:56;8.53;;;6.63;;
18142;SDS011;9197;50.930;3.140;2022-12-07T01:26:24;6.80;;;5.77;;
18142;SDS011;9197;50.930;3.140;2022-12-07T01:28:51;12.40;;;8.10;;
18142;SDS011;9197;50.930;3.140;2022-12-07T01:31:20;15.63;;;7.87;;
18142;SDS011;9197;50.930;3.140;2022-12-07T01:33:49;13.97;;;8.27;;
18142;SDS011;9197;50.930;3.140;2022-12-07T01:36:17;8.37;;;7.27;;
18142;SDS011;9197;50.930;3.140;2022-12-07T01:38:46;11.93;;;7.17;;
18142;SDS011;9197;50.930;3.140;2022-12-07T01:41:14;14.57;;;7.57;;
18142;SDS011;9197;50.930;3.140;2022-12-07T01:46:23;11.23;;;7.33;;
18142;SDS011;9197;50.930;3.140;2022-12-07T01:48:50;10.27;;;6.47;;
18142;SDS011;9197;50.930;3.140;2022-12-07T01:51:18;9.80;;;6.47;;
18142;SDS011;9197;50.930;3.140;2022-12-07T01:53:46;10.80;;;6.03;;
18142;SDS011;9197;50.930;3.140;2022-12-07T01:56:15;12.63;;;7.20;;
18142;SDS011;9197;50.930;3.140;2022-12-07T01:58:43;9.40;;;6.30;;
18142;SDS011;9197;50.930;3.140;2022-12-07T02:01:11;10.37;;;7.23;;
18142;SDS011;9197;50.930;3.140;2022-12-07T02:03:39;10.30;;;6.67;;
18142;SDS011;9197;50.930;3.140;2022-12-07T02:06:07;11.63;;;6.77;;
18142;SDS011;9197;50.930;3.140;2022-12-07T02:08:34;9.47;;;6.13;;
18142;SDS011;9197;50.930;3.140;2022-12-07T02:11:03;10.87;;;6.23;;
18142;SDS011;9197;50.930;3.140;2022-12-07T02:13:32;8.00;;;5.83;;
18142;SDS011;9197;50.930;3.140;2022-12-07T02:16:04;8.87;;;5.87;;
18142;SDS011;9197;50.930;3.140;2022-12-07T02:18:43;12.07;;;6.43;;
18142;SDS011;9197;50.930;3.140;2022-12-07T02:21:12;13.80;;;6.17;;
18142;SDS011;9197;50.930;3.140;2022-12-07T02:23:46;10.70;;;5.57;;
18142;SDS011;9197;50.930;3.140;2022-12-07T02:26:26;11.03;;;6.80;;
18142;SDS011;9197;50.930;3.140;2022-12-07T02:29:03;10.67;;;6.77;;
18142;SDS011;9197;50.930;3.140;2022-12-07T02:31:34;10.27;;;6.83;;
18142;SDS011;9197;50.930;3.140;2022-12-07T02:34:04;14.07;;;6.80;;
18142;SDS011;9197;50.930;3.140;2022-12-07T02:36:32;10.90;;;6.10;;
18142;SDS011;9197;50.930;3.140;2022-12-07T02:39:02;13.60;;;6.93;;
18142;SDS011;9197;50.930;3.140;2022-12-07T02:41:33;7.57;;;6.17;;
18142;SDS011;9197;50.930;3.140;2022-12-07T02:44:04;13.63;;;6.47;;
18142;SDS011;9197;50.930;3.140;2022-12-07T02:46:35;11.40;;;5.73;;
18142;SDS011;9197;50.930;3.140;2022-12-07T02:49:03;8.83;;;5.60;;
18142;SDS011;9197;50.930;3.140;2022-12-07T02:51:30;12.33;;;6.90;;
18142;SDS011;9197;50.930;3.140;2022-12-07T02:53:58;13.20;;;6.03;;
18142;SDS011;9197;50.930;3.140;2022-12-07T02:56:26;11.23;;;6.23;;
18142;SDS011;9197;50.930;3.140;2022-12-07T02:58:58;10.33;;;6.07;;
18142;SDS011;9197;50.930;3.140;2022-12-07T03:01:33;9.17;;;6.67;;
18142;SDS011;9197;50.930;3.140;2022-12-07T03:04:02;9.60;;;5.60;;
18142;SDS011;9197;50.930;3.140;2022-12-07T03:06:35;11.07;;;5.80;;
18142;SDS011;9197;50.930;3.140;2022-12-07T03:09:06;12.60;;;5.77;;
18142;SDS011;9197;50.930;3.140;2022-12-07T03:11:35;13.13;;;6.97;;
18142;SDS011;9197;50.930;3.140;2022-12-07T03:14:08;9.53;;;6.23;;
18142;SDS011;9197;50.930;3.140;2022-12-07T03:16:42;9.80;;;5.67;;
18142;SDS011;9197;50.930;3.140;2022-12-07T03:19:13;9.07;;;5.23;;
18142;SDS011;9197;50.930;3.140;2022-12-07T03:21:43;12.50;;;6.43;;
18142;SDS011;9197;50.930;3.140;2022-12-07T03:24:11;7.07;;;4.47;;
18142;SDS011;9197;50.930;3.140;2022-12-07T03:26:41;9.83;;;5.23;;
18142;SDS011;9197;50.930;3.140;2022-12-07T03:29:11;7.73;;;5.03;;
18142;SDS011;9197;50.930;3.140;2022-12-07T03:31:39;13.27;;;6.07;;
18142;SDS011;9197;50.930;3.140;2022-12-07T03:34:10;7.57;;;5.10;;
18142;SDS011;9197;50.930;3.140;2022-12-07T03:36:39;10.43;;;5.03;;
18142;SDS011;9197;50.930;3.140;2022-12-07T03:39:08;10.17;;;4.77;;
18142;SDS011;9197;50.930;3.140;2022-12-07T03:41:40;10.63;;;5.07;;
18142;SDS011;9197;50.930;3.140;2022-12-07T03:44:07;7.13;;;5.17;;
18142;SDS011;9197;50.930;3.140;2022-12-07T03:46:36;11.33;;;5.63;;
18142;SDS011;9197;50.930;3.140;2022-12-07T03:49:06;8.67;;;4.90;;
18142;SDS011;9197;50.930;3.140;2022-12-07T03:51:38;12.23;;;3.63;;
18142;SDS011;9197;50.930;3.140;2022-12-07T03:54:08;11.63;;;4.43;;
18142;SDS011;9197;50.930;3.140;2022-12-07T03:56:37;6.50;;;4.17;;
18142;SDS011;9197;50.930;3.140;2022-12-07T03:59:04;11.47;;;4.63;;
18142;SDS011;9197;50.930;3.140;2022-12-07T04:01:31;11.50;;;4.70;;
18142;SDS011;9197;50.930;3.140;2022-12-07T04:03:59;9.60;;;4.30;;
18142;SDS011;9197;50.930;3.140;2022-12-07T04:06:26;6.93;;;4.27;;
18142;SDS011;9197;50.930;3.140;2022-12-07T04:08:55;11.43;;;4.13;;
18142;SDS011;9197;50.930;3.140;2022-12-07T04:11:22;7.70;;;4.40;;
18142;SDS011;9197;50.930;3.140;2022-12-07T04:13:49;6.67;;;4.17;;
18142;SDS011;9197;50.930;3.140;2022-12-07T04:16:33;11.70;;;4.47;;
18142;SDS011;9197;50.930;3.140;2022-12-07T04:19:00;7.43;;;4.00;;
18142;SDS011;9197;50.930;3.140;2022-12-07T04:21:28;6.23;;;4.13;;
18142;SDS011;9197;50.930;3.140;2022-12-07T04:23:56;15.47;;;4.93;;
18142;SDS011;9197;50.930;3.140;2022-12-07T04:26:23;9.47;;;4.30;;
18142;SDS011;9197;50.930;3.140;2022-12-07T04:28:50;9.40;;;4.37;;
18142;SDS011;9197;50.930;3.140;2022-12-07T04:31:18;8.67;;;4.70;;
18142;SDS011;9197;50.930;3.140;2022-12-07T04:33:45;16.10;;;5.60;;
18142;SDS011;9197;50.930;3.140;2022-12-07T04:36:12;6.53;;;4.60;;
18142;SDS011;9197;50.930;3.140;2022-12-07T04:38:39;8.03;;;4.33;;
18142;SDS011;9197;50.930;3.140;2022-12-07T04:41:08;9.07;;;4.17;;
18142;SDS011;9197;50.930;3.140;2022-12-07T04:43:36;5.50;;;4.33;;
18142;SDS011;9197;50.930;3.140;2022-12-07T04:46:03;10.50;;;4.37;;
18142;SDS011;9197;50.930;3.140;2022-12-07T04:48:30;10.23;;;4.53;;
18142;SDS011;9197;50.930;3.140;2022-12-07T04:50:57;6.43;;;4.80;;
18142;SDS011;9197;50.930;3.140;2022-12-07T04:53:24;9.37;;;4.33;;
18142;SDS011;9197;50.930;3.140;2022-12-07T04:55:52;9.60;;;4.33;;
18142;SDS011;9197;50.930;3.140;2022-12-07T04:58:20;9.20;;;4.87;;
18142;SDS011;9197;50.930;3.140;2022-12-07T05:00:47;7.47;;;4.97;;
18142;SDS011;9197;50.930;3.140;2022-12-07T05:03:14;10.43;;;6.03;;
18142;SDS011;9197;50.930;3.140;2022-12-07T05:05:42;12.87;;;4.80;;
18142;SDS011;9197;50.930;3.140;2022-12-07T05:08:09;5.40;;;4.53;;
18142;SDS011;9197;50.930;3.140;2022-12-07T05:10:36;8.03;;;4.83;;
18142;SDS011;9197;50.930;3.140;2022-12-07T05:13:03;7.93;;;4.37;;
18142;SDS011;9197;50.930;3.140;2022-12-07T05:15:32;8.00;;;4.40;;
18142;SDS011;9197;50.930;3.140;2022-12-07T05:17:59;7.63;;;4.30;;
18142;SDS011;9197;50.930;3.140;2022-12-07T05:20:26;8.33;;;4.03;;
18142;SDS011;9197;50.930;3.140;2022-12-07T05:22:53;7.93;;;4.43;;
18142;SDS011;9197;50.930;3.140;2022-12-07T05:25:20;6.73;;;4.93;;
18142;SDS011;9197;50.930;3.140;2022-12-07T05:27:47;11.80;;;5.10;;
18142;SDS011;9197;50.930;3.140;2022-12-07T05:30:15;9.37;;;4.27;;
18142;SDS011;9197;50.930;3.140;2022-12-07T05:32:43;8.80;;;4.50;;
18142;SDS011;9197;50.930;3.140;2022-12-07T05:35:11;15.00;;;7.23;;
18142;SDS011;9197;50.930;3.140;2022-12-07T05:37:38;18.77;;;9.70;;
18142;SDS011;9197;50.930;3.140;2022-12-07T05:40:05;12.40;;;6.60;;
18142;SDS011;9197;50.930;3.140;2022-12-07T05:42:33;15.77;;;10.47;;
18142;SDS011;9197;50.930;3.140;2022-12-07T05:45:00;15.60;;;11.33;;
18142;SDS011;9197;50.930;3.140;2022-12-07T05:47:27;14.93;;;7.87;;
18142;SDS011;9197;50.930;3.140;2022-12-07T05:49:56;11.17;;;7.23;;
18142;SDS011;9197;50.930;3.140;2022-12-07T05:52:23;22.07;;;8.73;;
18142;SDS011;9197;50.930;3.140;2022-12-07T05:54:51;15.83;;;7.10;;
18142;SDS011;9197;50.930;3.140;2022-12-07T05:57:18;13.47;;;5.70;;
18142;SDS011;9197;50.930;3.140;2022-12-07T05:59:45;13.70;;;7.17;;
18142;SDS011;9197;50.930;3.140;2022-12-07T06:02:12;16.97;;;9.27;;
18142;SDS011;9197;50.930;3.140;2022-12-07T06:04:41;34.20;;;26.03;;
18142;SDS011;9197;50.930;3.140;2022-12-07T06:07:10;28.00;;;19.67;;
18142;SDS011;9197;50.930;3.140;2022-12-07T06:09:38;18.60;;;15.67;;
18142;SDS011;9197;50.930;3.140;2022-12-07T06:12:05;15.77;;;8.53;;
18142;SDS011;9197;50.930;3.140;2022-12-07T06:14:50;15.30;;;6.43;;
18142;SDS011;9197;50.930;3.140;2022-12-07T06:17:17;8.17;;;5.40;;
18142;SDS011;9197;50.930;3.140;2022-12-07T06:19:44;10.50;;;4.73;;
18142;SDS011;9197;50.930;3.140;2022-12-07T06:22:13;9.33;;;5.63;;
18142;SDS011;9197;50.930;3.140;2022-12-07T06:24:41;14.53;;;5.83;;
18142;SDS011;9197;50.930;3.140;2022-12-07T06:27:08;8.57;;;5.00;;
18142;SDS011;9197;50.930;3.140;2022-12-07T06:29:35;9.23;;;4.73;;
18142;SDS011;9197;50.930;3.140;2022-12-07T06:32:03;11.23;;;6.03;;
18142;SDS011;9197;50.930;3.140;2022-12-07T06:34:30;12.50;;;7.37;;
18142;SDS011;9197;50.930;3.140;2022-12-07T06:36:58;12.17;;;6.13;;
18142;SDS011;9197;50.930;3.140;2022-12-07T06:39:27;7.33;;;5.43;;
18142;SDS011;9197;50.930;3.140;2022-12-07T06:41:54;12.23;;;6.23;;
18142;SDS011;9197;50.930;3.140;2022-12-07T06:44:21;13.23;;;9.90;;
18142;SDS011;9197;50.930;3.140;2022-12-07T06:46:49;14.13;;;5.80;;
18142;SDS011;9197;50.930;3.140;2022-12-07T06:49:17;13.43;;;5.73;;
18142;SDS011;9197;50.930;3.140;2022-12-07T06:51:44;7.23;;;5.77;;
18142;SDS011;9197;50.930;3.140;2022-12-07T06:54:13;14.07;;;7.23;;
18142;SDS011;9197;50.930;3.140;2022-12-07T06:56:41;12.60;;;6.87;;
18142;SDS011;9197;50.930;3.140;2022-12-07T06:59:08;10.40;;;7.93;;
18142;SDS011;9197;50.930;3.140;2022-12-07T07:01:36;15.67;;;11.13;;
18142;SDS011;9197;50.930;3.140;2022-12-07T07:04:03;9.83;;;6.10;;
18142;SDS011;9197;50.930;3.140;2022-12-07T07:06:31;9.17;;;5.53;;
18142;SDS011;9197;50.930;3.140;2022-12-07T07:08:58;7.47;;;4.47;;
18142;SDS011;9197;50.930;3.140;2022-12-07T07:11:25;5.27;;;3.43;;
18142;SDS011;9197;50.930;3.140;2022-12-07T07:13:54;7.90;;;4.47;;
18142;SDS011;9197;50.930;3.140;2022-12-07T07:16:27;6.13;;;4.17;;
18142;SDS011;9197;50.930;3.140;2022-12-07T07:18:54;8.53;;;4.00;;
18142;SDS011;9197;50.930;3.140;2022-12-07T07:21:22;7.33;;;4.03;;
18142;SDS011;9197;50.930;3.140;2022-12-07T07:23:49;9.60;;;4.17;;
18142;SDS011;9197;50.930;3.140;2022-12-07T07:26:17;6.70;;;4.00;;
18142;SDS011;9197;50.930;3.140;2022-12-07T07:28:44;17.50;;;4.03;;
18142;SDS011;9197;50.930;3.140;2022-12-07T07:31:12;8.97;;;4.07;;
18142;SDS011;9197;50.930;3.140;2022-12-07T07:33:39;6.73;;;3.43;;
18142;SDS011;9197;50.930;3.140;2022-12-07T07:36:07;7.47;;;3.70;;
18142;SDS011;9197;50.930;3.140;2022-12-07T07:38:34;6.57;;;3.63;;
18142;SDS011;9197;50.930;3.140;2022-12-07T07:41:08;6.97;;;5.20;;
18142;SDS011;9197;50.930;3.140;2022-12-07T07:43:35;9.40;;;5.77;;
18142;SDS011;9197;50.930;3.140;2022-12-07T07:46:02;7.70;;;6.07;;
18142;SDS011;9197;50.930;3.140;2022-12-07T07:48:30;10.23;;;7.30;;
18142;SDS011;9197;50.930;3.140;2022-12-07T07:50:58;9.53;;;7.80;;
18142;SDS011;9197;50.930;3.140;2022-12-07T07:53:25;13.30;;;6.53;;
18142;SDS011;9197;50.930;3.140;2022-12-07T07:55:52;11.17;;;6.00;;
18142;SDS011;9197;50.930;3.140;2022-12-07T07:58:19;10.10;;;5.37;;
18142;SDS011;9197;50.930;3.140;2022-12-07T08:00:46;7.27;;;4.37;;
18142;SDS011;9197;50.930;3.140;2022-12-07T08:03:13;7.83;;;5.27;;
18142;SDS011;9197;50.930;3.140;2022-12-07T08:05:42;11.17;;;6.20;;
18142;SDS011;9197;50.930;3.140;2022-12-07T08:08:09;13.27;;;6.70;;
18142;SDS011;9197;50.930;3.140;2022-12-07T08:10:36;7.50;;;5.40;;
18142;SDS011;9197;50.930;3.140;2022-12-07T08:13:03;10.63;;;4.63;;
18142;SDS011;9197;50.930;3.140;2022-12-07T08:15:38;10.73;;;5.13;;
18142;SDS011;9197;50.930;3.140;2022-12-07T08:18:06;11.13;;;4.50;;
18142;SDS011;9197;50.930;3.140;2022-12-07T08:20:34;13.23;;;4.23;;
18142;SDS011;9197;50.930;3.140;2022-12-07T08:23:02;9.57;;;4.43;;
18142;SDS011;9197;50.930;3.140;2022-12-07T08:25:30;10.43;;;3.63;;
18142;SDS011;9197;50.930;3.140;2022-12-07T08:27:58;9.23;;;3.50;;
18142;SDS011;9197;50.930;3.140;2022-12-07T08:30:25;8.13;;;4.30;;
18142;SDS011;9197;50.930;3.140;2022-12-07T08:32:52;16.30;;;5.10;;
18142;SDS011;9197;50.930;3.140;2022-12-07T08:35:19;10.80;;;5.70;;
18142;SDS011;9197;50.930;3.140;2022-12-07T08:37:47;12.03;;;4.63;;
18142;SDS011;9197;50.930;3.140;2022-12-07T08:40:15;10.60;;;4.27;;
18142;SDS011;9197;50.930;3.140;2022-12-07T08:42:44;7.83;;;4.83;;
18142;SDS011;9197;50.930;3.140;2022-12-07T08:45:13;13.00;;;4.50;;
18142;SDS011;9197;50.930;3.140;2022-12-07T08:47:42;13.17;;;4.40;;
18142;SDS011;9197;50.930;3.140;2022-12-07T08:50:10;8.50;;;4.57;;
18142;SDS011;9197;50.930;3.140;2022-12-07T08:52:38;4.33;;;3.83;;
18142;SDS011;9197;50.930;3.140;2022-12-07T08:55:06;7.73;;;4.33;;
18142;SDS011;9197;50.930;3.140;2022-12-07T08:57:35;6.83;;;3.67;;
18142;SDS011;9197;50.930;3.140;2022-12-07T09:00:03;7.77;;;4.23;;
18142;SDS011;9197;50.930;3.140;2022-12-07T09:02:30;8.13;;;3.30;;
18142;SDS011;9197;50.930;3.140;2022-12-07T09:04:58;9.00;;;3.77;;
18142;SDS011;9197;50.930;3.140;2022-12-07T09:07:25;11.30;;;4.30;;
18142;SDS011;9197;50.930;3.140;2022-12-07T09:09:52;6.03;;;4.07;;
18142;SDS011;9197;50.930;3.140;2022-12-07T09:12:19;6.30;;;4.20;;
18142;SDS011;9197;50.930;3.140;2022-12-07T09:14:48;5.63;;;3.87;;
18142;SDS011;9197;50.930;3.140;2022-12-07T09:17:15;6.27;;;3.43;;
18142;SDS011;9197;50.930;3.140;2022-12-07T09:19:43;7.53;;;3.60;;
18142;SDS011;9197;50.930;3.140;2022-12-07T09:22:10;6.93;;;3.17;;
18142;SDS011;9197;50.930;3.140;2022-12-07T09:24:37;9.70;;;3.63;;
18142;SDS011;9197;50.930;3.140;2022-12-07T09:27:05;6.73;;;4.23;;
18142;SDS011;9197;50.930;3.140;2022-12-07T09:29:32;10.97;;;3.93;;
18142;SDS011;9197;50.930;3.140;2022-12-07T09:32:00;6.03;;;3.93;;
18142;SDS011;9197;50.930;3.140;2022-12-07T09:34:29;8.07;;;3.40;;
18142;SDS011;9197;50.930;3.140;2022-12-07T09:36:57;7.03;;;4.10;;
18142;SDS011;9197;50.930;3.140;2022-12-07T09:39:25;5.93;;;4.00;;
18142;SDS011;9197;50.930;3.140;2022-12-07T09:41:52;6.77;;;3.93;;
18142;SDS011;9197;50.930;3.140;2022-12-07T09:44:20;8.97;;;4.00;;
18142;SDS011;9197;50.930;3.140;2022-12-07T09:46:49;5.27;;;3.73;;
18142;SDS011;9197;50.930;3.140;2022-12-07T09:49:20;9.90;;;3.67;;
18142;SDS011;9197;50.930;3.140;2022-12-07T09:51:55;4.30;;;3.90;;
18142;SDS011;9197;50.930;3.140;2022-12-07T09:54:25;6.67;;;3.63;;
18142;SDS011;9197;50.930;3.140;2022-12-07T09:56:53;4.20;;;3.07;;
18142;SDS011;9197;50.930;3.140;2022-12-07T09:59:20;5.97;;;2.50;;
18142;SDS011;9197;50.930;3.140;2022-12-07T10:01:48;8.00;;;2.83;;
18142;SDS011;9197;50.930;3.140;2022-12-07T10:04:20;6.13;;;2.50;;
18142;SDS011;9197;50.930;3.140;2022-12-07T10:06:49;4.23;;;2.30;;
18142;SDS011;9197;50.930;3.140;2022-12-07T10:09:16;4.37;;;1.70;;
18142;SDS011;9197;50.930;3.140;2022-12-07T10:12:00;3.93;;;1.77;;
18142;SDS011;9197;50.930;3.140;2022-12-07T10:14:28;2.73;;;1.53;;
18142;SDS011;9197;50.930;3.140;2022-12-07T10:16:55;3.93;;;1.80;;
18142;SDS011;9197;50.930;3.140;2022-12-07T10:19:25;4.87;;;1.50;;
18142;SDS011;9197;50.930;3.140;2022-12-07T10:21:59;5.10;;;1.60;;
18142;SDS011;9197;50.930;3.140;2022-12-07T10:24:26;4.83;;;1.90;;
18142;SDS011;9197;50.930;3.140;2022-12-07T10:26:53;4.27;;;2.60;;
18142;SDS011;9197;50.930;3.140;2022-12-07T10:29:21;5.40;;;2.77;;
18142;SDS011;9197;50.930;3.140;2022-12-07T10:31:51;8.43;;;2.20;;
18142;SDS011;9197;50.930;3.140;2022-12-07T10:34:20;5.37;;;2.47;;
18142;SDS011;9197;50.930;3.140;2022-12-07T10:36:51;4.37;;;2.40;;
18142;SDS011;9197;50.930;3.140;2022-12-07T10:39:18;7.97;;;3.23;;
18142;SDS011;9197;50.930;3.140;2022-12-07T10:41:52;7.63;;;2.13;;
18142;SDS011;9197;50.930;3.140;2022-12-07T10:44:21;7.10;;;2.13;;
18142;SDS011;9197;50.930;3.140;2022-12-07T10:46:52;3.83;;;1.73;;
18142;SDS011;9197;50.930;3.140;2022-12-07T10:49:32;4.73;;;2.07;;
18142;SDS011;9197;50.930;3.140;2022-12-07T10:52:07;5.80;;;1.97;;
18142;SDS011;9197;50.930;3.140;2022-12-07T10:54:39;4.10;;;2.07;;
18142;SDS011;9197;50.930;3.140;2022-12-07T11:00:00;5.87;;;1.70;;
18142;SDS011;9197;50.930;3.140;2022-12-07T11:02:35;4.83;;;2.03;;
18142;SDS011;9197;50.930;3.140;2022-12-07T11:05:06;2.67;;;1.57;;
18142;SDS011;9197;50.930;3.140;2022-12-07T11:07:45;3.43;;;1.73;;
18142;SDS011;9197;50.930;3.140;2022-12-07T11:10:15;4.10;;;1.80;;
18142;SDS011;9197;50.930;3.140;2022-12-07T11:12:47;5.73;;;1.60;;
18142;SDS011;9197;50.930;3.140;2022-12-07T11:15:17;2.13;;;1.27;;
18142;SDS011;9197;50.930;3.140;2022-12-07T11:17:48;10.13;;;1.93;;
18142;SDS011;9197;50.930;3.140;2022-12-07T11:20:28;6.93;;;1.57;;
18142;SDS011;9197;50.930;3.140;2022-12-07T11:22:58;3.50;;;1.73;;
18142;SDS011;9197;50.930;3.140;2022-12-07T11:25:31;4.40;;;1.70;;
18142;SDS011;9197;50.930;3.140;2022-12-07T11:28:03;2.37;;;1.60;;
18142;SDS011;9197;50.930;3.140;2022-12-07T11:30:34;4.80;;;1.63;;
18142;SDS011;9197;50.930;3.140;2022-12-07T11:33:09;4.80;;;2.30;;
18142;SDS011;9197;50.930;3.140;2022-12-07T11:35:42;1.83;;;1.43;;
18142;SDS011;9197;50.930;3.140;2022-12-07T11:38:14;3.87;;;1.43;;
18142;SDS011;9197;50.930;3.140;2022-12-07T11:40:43;3.73;;;1.50;;
18142;SDS011;9197;50.930;3.140;2022-12-07T11:43:13;3.60;;;1.30;;
18142;SDS011;9197;50.930;3.140;2022-12-07T11:45:42;2.83;;;1.70;;
18142;SDS011;9197;50.930;3.140;2022-12-07T11:48:11;2.60;;;1.50;;
18142;SDS011;9197;50.930;3.140;2022-12-07T11:50:42;6.33;;;1.60;;
18142;SDS011;9197;50.930;3.140;2022-12-07T11:53:10;3.47;;;1.47;;
18142;SDS011;9197;50.930;3.140;2022-12-07T11:55:43;2.73;;;1.37;;
18142;SDS011;9197;50.930;3.140;2022-12-07T11:58:19;1.73;;;1.20;;
18142;SDS011;9197;50.930;3.140;2022-12-07T12:00:48;5.73;;;1.30;;
18142;SDS011;9197;50.930;3.140;2022-12-07T12:03:18;6.47;;;1.80;;
18142;SDS011;9197;50.930;3.140;2022-12-07T12:05:47;3.73;;;1.40;;
18142;SDS011;9197;50.930;3.140;2022-12-07T12:08:15;3.77;;;2.30;;
18142;SDS011;9197;50.930;3.140;2022-12-07T12:10:50;4.03;;;1.70;;
18142;SDS011;9197;50.930;3.140;2022-12-07T12:13:28;6.27;;;1.97;;
18142;SDS011;9197;50.930;3.140;2022-12-07T12:16:13;3.37;;;2.80;;
18142;SDS011;9197;50.930;3.140;2022-12-07T12:18:50;6.40;;;2.63;;
18142;SDS011;9197;50.930;3.140;2022-12-07T12:21:21;4.80;;;2.20;;
18142;SDS011;9197;50.930;3.140;2022-12-07T12:23:50;3.57;;;1.90;;
18142;SDS011;9197;50.930;3.140;2022-12-07T12:26:20;4.73;;;1.43;;
18142;SDS011;9197;50.930;3.140;2022-12-07T12:28:50;3.93;;;1.73;;
18142;SDS011;9197;50.930;3.140;2022-12-07T12:31:31;2.67;;;1.30;;
18142;SDS011;9197;50.930;3.140;2022-12-07T12:34:01;2.97;;;1.27;;
18142;SDS011;9197;50.930;3.140;2022-12-07T12:36:43;3.57;;;1.67;;
18142;SDS011;9197;50.930;3.140;2022-12-07T12:39:11;3.97;;;1.53;;
18142;SDS011;9197;50.930;3.140;2022-12-07T12:41:54;2.97;;;1.57;;
18142;SDS011;9197;50.930;3.140;2022-12-07T12:44:40;5.55;;;2.97;;
18142;SDS011;9197;50.930;3.140;2022-12-07T13:03:42;7.30;;;2.77;;
18142;SDS011;9197;50.930;3.140;2022-12-07T13:06:20;5.80;;;2.87;;
18142;SDS011;9197;50.930;3.140;2022-12-07T13:08:58;4.30;;;2.13;;
18142;SDS011;9197;50.930;3.140;2022-12-07T13:11:28;3.60;;;1.97;;
18142;SDS011;9197;50.930;3.140;2022-12-07T13:16:39;4.53;;;2.33;;
18142;SDS011;9197;50.930;3.140;2022-12-07T13:21:54;3.60;;;2.43;;
18142;SDS011;9197;50.930;3.140;2022-12-07T13:24:21;3.53;;;2.33;;
18142;SDS011;9197;50.930;3.140;2022-12-07T13:26:48;3.33;;;2.30;;
18142;SDS011;9197;50.930;3.140;2022-12-07T13:29:22;5.07;;;2.53;;
18142;SDS011;9197;50.930;3.140;2022-12-07T13:31:50;5.07;;;2.97;;
18142;SDS011;9197;50.930;3.140;2022-12-07T13:34:27;4.40;;;3.13;;
18142;SDS011;9197;50.930;3.140;2022-12-07T13:36:57;9.07;;;3.47;;
18142;SDS011;9197;50.930;3.140;2022-12-07T13:39:25;6.43;;;2.40;;
18142;SDS011;9197;50.930;3.140;2022-12-07T13:41:53;4.77;;;1.63;;
18142;SDS011;9197;50.930;3.140;2022-12-07T13:44:21;3.70;;;1.20;;
18142;SDS011;9197;50.930;3.140;2022-12-07T13:46:53;1.30;;;1.17;;
18142;SDS011;9197;50.930;3.140;2022-12-07T13:49:23;3.13;;;1.43;;
18142;SDS011;9197;50.930;3.140;2022-12-07T13:51:50;6.23;;;1.83;;
18142;SDS011;9197;50.930;3.140;2022-12-07T13:54:19;3.37;;;1.73;;
18142;SDS011;9197;50.930;3.140;2022-12-07T13:56:47;2.57;;;1.50;;
18142;SDS011;9197;50.930;3.140;2022-12-07T13:59:17;2.07;;;0.93;;
18142;SDS011;9197;50.930;3.140;2022-12-07T14:01:45;3.57;;;1.27;;
18142;SDS011;9197;50.930;3.140;2022-12-07T14:04:16;4.17;;;1.63;;
18142;SDS011;9197;50.930;3.140;2022-12-07T14:06:47;7.03;;;1.37;;
18142;SDS011;9197;50.930;3.140;2022-12-07T14:09:17;3.07;;;1.20;;
18142;SDS011;9197;50.930;3.140;2022-12-07T14:11:46;2.70;;;1.43;;
18142;SDS011;9197;50.930;3.140;2022-12-07T14:14:15;3.40;;;1.80;;
18142;SDS011;9197;50.930;3.140;2022-12-07T14:16:45;3.80;;;2.03;;
18142;SDS011;9197;50.930;3.140;2022-12-07T14:22:07;7.80;;;4.57;;
18142;SDS011;9197;50.930;3.140;2022-12-07T14:24:41;4.43;;;3.20;;
18142;SDS011;9197;50.930;3.140;2022-12-07T14:27:17;5.00;;;3.43;;
18142;SDS011;9197;50.930;3.140;2022-12-07T14:29:45;9.80;;;4.40;;
18142;SDS011;9197;50.930;3.140;2022-12-07T14:32:20;10.70;;;5.07;;
18142;SDS011;9197;50.930;3.140;2022-12-07T14:34:53;13.03;;;5.17;;
18142;SDS011;9197;50.930;3.140;2022-12-07T14:37:20;6.17;;;3.57;;
18142;SDS011;9197;50.930;3.140;2022-12-07T14:39:47;4.97;;;3.40;;
18142;SDS011;9197;50.930;3.140;2022-12-07T14:42:15;6.33;;;3.50;;
18142;SDS011;9197;50.930;3.140;2022-12-07T14:44:43;10.53;;;4.20;;
18142;SDS011;9197;50.930;3.140;2022-12-07T14:47:10;9.07;;;7.53;;
18142;SDS011;9197;50.930;3.140;2022-12-07T14:49:38;5.10;;;4.50;;
18142;SDS011;9197;50.930;3.140;2022-12-07T14:52:05;8.60;;;4.03;;
18142;SDS011;9197;50.930;3.140;2022-12-07T14:54:36;7.00;;;3.80;;
18142;SDS011;9197;50.930;3.140;2022-12-07T14:57:03;4.50;;;2.80;;
18142;SDS011;9197;50.930;3.140;2022-12-07T14:59:31;3.57;;;2.20;;
18142;SDS011;9197;50.930;3.140;2022-12-07T15:01:59;12.50;;;5.70;;
18142;SDS011;9197;50.930;3.140;2022-12-07T15:04:27;5.53;;;3.17;;
18142;SDS011;9197;50.930;3.140;2022-12-07T15:06:56;25.63;;;15.27;;
18142;SDS011;9197;50.930;3.140;2022-12-07T15:09:23;12.30;;;5.83;;
18142;SDS011;9197;50.930;3.140;2022-12-07T15:11:51;6.23;;;2.00;;
18142;SDS011;9197;50.930;3.140;2022-12-07T15:14:18;6.17;;;2.80;;
18142;SDS011;9197;50.930;3.140;2022-12-07T15:16:47;6.50;;;3.20;;
18142;SDS011;9197;50.930;3.140;2022-12-07T15:19:16;3.17;;;1.67;;
18142;SDS011;9197;50.930;3.140;2022-12-07T15:21:44;6.43;;;2.67;;
18142;SDS011;9197;50.930;3.140;2022-12-07T15:24:12;15.20;;;6.67;;
18142;SDS011;9197;50.930;3.140;2022-12-07T15:26:40;5.07;;;3.00;;
18142;SDS011;9197;50.930;3.140;2022-12-07T15:29:08;6.53;;;4.00;;
18142;SDS011;9197;50.930;3.140;2022-12-07T15:31:35;7.77;;;5.03;;
18142;SDS011;9197;50.930;3.140;2022-12-07T15:34:03;8.87;;;3.57;;
18142;SDS011;9197;50.930;3.140;2022-12-07T15:36:35;7.87;;;2.97;;
18142;SDS011;9197;50.930;3.140;2022-12-07T15:39:02;5.53;;;3.40;;